Time;durP1;ratioP1;P1;durP2;ratioP2;P2;SDS_P1;SDS_P2;PMS_P1;PMS_P2;Temp;Humidity;BMP_temperature;BMP_pressure;BME280_temperature;BME280_humidity;BME280_pressure;Samples;Min_cycle;Max_cycle;Signal;HPM_P1;HPM_P2
2023/09/26 00:02:36;;;;;;;11.80;7.95;;;;;;;8.75;nan;101919.50;10357784;28;20042;-80
2023/09/26 00:07:36;;;;;;;41.65;11.43;;;;;;;8.71;nan;101917.47;10359756;28;20056;-81
2023/09/26 00:12:37;;;;;;;13.27;8.43;;;;;;;8.69;nan;101911.25;10358804;28;20053;-80
2023/09/26 00:17:38;;;;;;;16.30;10.43;;;;;;;8.73;nan;101908.06;10358553;28;20090;-81
2023/09/26 00:22:39;;;;;;;13.63;9.57;;;;;;;8.69;nan;101919.06;10355444;28;20425;-81
2023/09/26 00:27:39;;;;;;;14.25;9.98;;;;;;;8.63;nan;101914.31;10359927;28;20050;-81
2023/09/26 00:32:40;;;;;;;15.27;9.10;;;;;;;8.60;nan;101909.78;10357515;28;20489;-81
2023/09/26 00:37:41;;;;;;;14.80;9.93;;;;;;;8.58;nan;101910.44;10374675;28;20187;-79
2023/09/26 00:42:45;;;;;;;11.52;8.63;;;;;;;8.44;nan;101910.31;10372961;28;20041;-79
2023/09/26 00:47:45;;;;;;;19.23;10.48;;;;;;;8.38;nan;101904.66;10357247;28;20050;-80
2023/09/26 00:52:49;;;;;;;15.93;12.02;;;;;;;8.34;nan;101897.41;10340251;28;20046;-80
2023/09/26 00:57:49;;;;;;;18.40;9.65;;;;;;;8.36;nan;101893.19;10358508;28;20034;-78
2023/09/26 01:02:50;;;;;;;9.73;7.18;;;;;;;8.36;nan;101906.25;10355046;28;20092;-79
2023/09/26 01:07:50;;;;;;;11.95;8.85;;;;;;;8.35;nan;101904.44;10339511;28;20116;-80
2023/09/26 01:12:51;;;;;;;14.93;10.07;;;;;;;8.36;nan;101898.41;10370169;28;20124;-79
2023/09/26 01:17:51;;;;;;;13.98;10.77;;;;;;;8.38;nan;101895.16;10355996;28;20512;-79
2023/09/26 01:22:52;;;;;;;15.23;9.77;;;;;;;8.40;nan;101894.34;10358215;28;20044;-79
2023/09/26 01:27:52;;;;;;;17.92;10.27;;;;;;;8.39;nan;101893.44;10353894;28;20455;-78
2023/09/26 01:32:53;;;;;;;15.45;11.00;;;;;;;8.30;nan;101892.75;10355289;28;20036;-78
2023/09/26 01:37:54;;;;;;;12.75;9.10;;;;;;;8.20;nan;101886.84;10357197;28;20478;-78
2023/09/26 01:42:54;;;;;;;23.73;14.07;;;;;;;8.11;nan;101883.56;10356320;28;20513;-78
2023/09/26 01:47:55;;;;;;;13.18;9.93;;;;;;;8.10;nan;101879.16;10359203;28;20125;-79
2023/09/26 01:52:56;;;;;;;13.20;10.07;;;;;;;8.02;nan;101878.59;10356459;28;20065;-79
2023/09/26 01:57:56;;;;;;;14.02;9.65;;;;;;;7.93;nan;101876.19;10355696;28;20072;-78
2023/09/26 02:03:00;;;;;;;20.00;11.38;;;;;;;7.91;nan;101856.03;10356213;28;20044;-78
2023/09/26 02:08:00;;;;;;;15.02;8.82;;;;;;;7.95;nan;101860.69;10358338;28;20042;-78
2023/09/26 02:13:01;;;;;;;17.85;12.00;;;;;;;8.05;nan;101860.56;10356025;28;20046;-79
2023/09/26 02:18:02;;;;;;;17.42;12.50;;;;;;;8.17;nan;101865.78;10340369;28;20045;-78
2023/09/26 02:23:02;;;;;;;20.30;11.77;;;;;;;8.31;nan;101863.28;10354717;28;20061;-79
2023/09/26 02:28:03;;;;;;;22.13;13.00;;;;;;;8.36;nan;101859.28;10355415;28;20050;-79
2023/09/26 02:33:04;;;;;;;14.20;10.55;;;;;;;8.33;nan;101852.16;10358669;28;20453;-79
2023/09/26 02:38:04;;;;;;;13.55;10.30;;;;;;;8.22;nan;101838.31;10364279;28;20092;-79
2023/09/26 02:43:05;;;;;;;19.23;12.57;;;;;;;8.11;nan;101843.56;10361738;28;20045;-79
2023/09/26 02:48:06;;;;;;;18.08;12.43;;;;;;;7.99;nan;101836.66;10364323;28;20038;-79
2023/09/26 02:53:07;;;;;;;18.83;9.73;;;;;;;7.89;nan;101842.88;10359202;28;20506;-79
2023/09/26 02:58:07;;;;;;;18.17;10.77;;;;;;;7.87;nan;101835.75;10361544;28;20034;-78
2023/09/26 03:03:08;;;;;;;14.32;10.55;;;;;;;7.94;nan;101830.19;10361127;28;20061;-78
2023/09/26 03:08:08;;;;;;;19.17;12.18;;;;;;;8.03;nan;101837.78;10363011;28;20136;-78
2023/09/26 03:13:09;;;;;;;19.85;13.82;;;;;;;8.02;nan;101835.97;10318289;28;20058;-78
2023/09/26 03:18:09;;;;;;;20.15;12.80;;;;;;;7.97;nan;101833.03;10343843;28;20111;-78
2023/09/26 03:23:10;;;;;;;20.30;13.43;;;;;;;7.89;nan;101834.16;10360726;28;20077;-78
2023/09/26 03:28:10;;;;;;;18.95;11.90;;;;;;;7.85;nan;101826.91;10378342;28;20462;-78
2023/09/26 03:33:11;;;;;;;21.70;11.90;;;;;;;7.87;nan;101820.13;10359139;28;20038;-78
2023/09/26 03:38:11;;;;;;;19.65;13.02;;;;;;;7.89;nan;101822.03;10358846;28;20061;-79
2023/09/26 03:43:12;;;;;;;19.70;14.68;;;;;;;7.88;nan;101817.59;10363118;28;20074;-78
2023/09/26 03:48:12;;;;;;;22.98;15.52;;;;;;;7.86;nan;101821.81;10362270;28;20785;-78
2023/09/26 03:53:15;;;;;;;26.98;15.18;;;;;;;7.98;nan;101814.00;10357502;28;20489;-78
2023/09/26 03:58:16;;;;;;;27.17;15.52;;;;;;;8.01;nan;101806.41;10362676;28;20038;-79
2023/09/26 04:03:16;;;;;;;23.42;15.25;;;;;;;8.04;nan;101803.09;10336063;28;20980;-78
2023/09/26 04:08:17;;;;;;;23.77;16.08;;;;;;;8.06;nan;101806.72;10317479;28;20038;-78
2023/09/26 04:13:17;;;;;;;22.30;14.65;;;;;;;8.11;nan;101805.34;10298411;28;20596;-78
2023/09/26 04:18:19;;;;;;;21.90;14.57;;;;;;;8.18;nan;101809.31;10310266;28;20054;-78
2023/09/26 04:23:19;;;;;;;20.95;14.18;;;;;;;8.29;nan;101807.47;10310008;28;20080;-78
2023/09/26 04:28:20;;;;;;;24.08;15.45;;;;;;;8.42;nan;101809.28;10324592;28;20504;-78
2023/09/26 04:33:20;;;;;;;19.27;14.80;;;;;;;8.43;nan;101800.66;10325749;28;20056;-78
2023/09/26 04:38:21;;;;;;;21.23;14.35;;;;;;;8.34;nan;101800.88;10310953;28;20978;-78
2023/09/26 04:43:22;;;;;;;30.70;13.95;;;;;;;8.28;nan;101803.97;10311269;28;20561;-78
2023/09/26 04:48:22;;;;;;;21.27;14.20;;;;;;;8.21;nan;101804.34;10324593;28;20053;-78
2023/09/26 04:53:23;;;;;;;20.48;14.10;;;;;;;8.13;nan;101802.88;10349049;28;20045;-77
2023/09/26 04:58:23;;;;;;;23.10;13.93;;;;;;;8.02;nan;101805.59;10334953;28;20054;-77
2023/09/26 05:03:24;;;;;;;20.63;13.90;;;;;;;7.96;nan;101805.16;10308638;28;20099;-79
2023/09/26 05:08:24;;;;;;;87.20;23.15;;;;;;;7.97;nan;101798.22;10308154;28;20108;-80
2023/09/26 05:13:25;;;;;;;23.98;14.77;;;;;;;8.00;nan;101794.16;10358710;28;20095;-79
2023/09/26 05:18:25;;;;;;;15.10;11.52;;;;;;;8.11;nan;101788.81;10354242;28;20498;-77
2023/09/26 05:23:26;;;;;;;21.67;13.90;;;;;;;8.19;nan;101785.94;10352320;28;20038;-80
2023/09/26 05:28:29;;;;;;;25.55;17.10;;;;;;;8.29;nan;101786.59;10338981;28;20447;-77
2023/09/26 05:33:30;;;;;;;21.90;15.70;;;;;;;8.37;nan;101777.63;10322303;28;20049;-78
2023/09/26 05:38:30;;;;;;;17.00;13.13;;;;;;;8.43;nan;101783.28;10325474;28;20034;-77
2023/09/26 05:43:31;;;;;;;25.50;16.05;;;;;;;8.48;nan;101784.50;10347757;28;20030;-78
2023/09/26 05:48:32;;;;;;;23.73;15.35;;;;;;;8.58;nan;101790.41;10333666;28;20037;-78
2023/09/26 05:53:33;;;;;;;31.77;17.05;;;;;;;8.68;nan;101777.22;10332589;28;20124;-79
2023/09/26 05:58:33;;;;;;;29.48;17.40;;;;;;;8.77;nan;101788.31;10333693;28;20563;-79
2023/09/26 06:03:34;;;;;;;24.50;17.02;;;;;;;8.92;nan;101790.16;10348750;28;20100;-77
2023/09/26 06:08:35;;;;;;;29.17;15.52;;;;;;;9.08;nan;101794.75;10356125;28;20064;-76
2023/09/26 06:13:35;;;;;;;31.38;16.05;;;;;;;9.19;nan;101785.94;10363179;28;20156;-77
2023/09/26 06:18:36;;;;;;;20.30;13.75;;;;;;;9.34;nan;101793.91;10364048;28;20496;-79
2023/09/26 06:23:36;;;;;;;19.17;12.73;;;;;;;9.44;nan;101782.38;10357734;28;20124;-79
2023/09/26 06:28:37;;;;;;;16.52;13.27;;;;;;;9.64;nan;101790.63;10362574;28;20068;-80
2023/09/26 06:33:37;;;;;;;16.60;11.55;;;;;;;10.03;nan;101778.38;10362873;28;20077;-79
2023/09/26 06:38:38;;;;;;;18.25;10.80;;;;;;;10.35;nan;101763.81;10364542;28;20508;-80
2023/09/26 06:43:38;;;;;;;15.48;11.90;;;;;;;10.66;nan;101770.06;10362327;28;20048;-80
2023/09/26 06:48:39;;;;;;;15.02;8.43;;;;;;;12.70;nan;101761.56;10361856;28;20065;-80
2023/09/26 06:53:40;;;;;;;11.10;5.60;;;;;;;13.65;nan;101759.44;10294570;28;20050;-79
2023/09/26 06:58:40;;;;;;;8.85;5.07;;;;;;;13.62;nan;101762.81;10337932;28;20117;-79
2023/09/26 07:03:41;;;;;;;9.23;5.50;;;;;;;14.62;nan;101733.22;10323440;28;20463;-80
2023/09/26 07:08:43;;;;;;;7.10;4.40;;;;;;;15.67;nan;101695.50;10298409;28;20394;-81
2023/09/26 07:13:43;;;;;;;6.57;4.05;;;;;;;16.70;nan;101630.66;10354552;28;20387;-77
2023/09/26 07:18:44;;;;;;;7.80;4.13;;;;;;;17.27;nan;101688.13;10318358;28;20124;-78
2023/09/26 07:23:44;;;;;;;6.78;3.95;;;;;;;17.83;nan;101708.41;10361255;28;20482;-78
2023/09/26 07:28:45;;;;;;;9.10;4.77;;;;;;;17.91;nan;101701.59;10362062;28;20053;-80
2023/09/26 07:33:45;;;;;;;11.40;3.43;;;;;;;18.60;nan;101709.84;10360919;28;20121;-80
2023/09/26 07:38:46;;;;;;;9.13;3.70;;;;;;;18.31;nan;101690.44;10357824;28;20104;-81
2023/09/26 07:43:46;;;;;;;10.90;3.77;;;;;;;18.58;nan;101705.31;10355265;28;20049;-77
2023/09/26 07:48:47;;;;;;;11.00;4.90;;;;;;;18.13;nan;101701.41;10354866;28;20042;-79
2023/09/26 07:53:48;;;;;;;8.20;3.47;;;;;;;17.37;nan;101704.28;10354722;28;20172;-80
2023/09/26 07:58:48;;;;;;;11.43;4.22;;;;;;;16.78;nan;101682.03;10346892;28;20523;-80
2023/09/26 08:03:49;;;;;;;5.87;3.30;;;;;;;16.45;nan;101672.06;10352682;28;20042;-78
2023/09/26 08:08:50;;;;;;;11.40;3.38;;;;;;;16.46;nan;101695.00;10360395;28;20041;-80
2023/09/26 08:13:50;;;;;;;6.65;4.47;;;;;;;16.53;nan;101720.78;10336779;28;20030;-79
2023/09/26 08:18:51;;;;;;;7.70;4.18;;;;;;;16.94;nan;101725.75;10335771;28;20069;-78
2023/09/26 08:23:51;;;;;;;9.60;3.90;;;;;;;17.26;nan;101741.00;10359535;28;20072;-78
2023/09/26 08:28:52;;;;;;;8.63;3.55;;;;;;;17.73;nan;101741.66;10356230;28;20052;-79
2023/09/26 08:33:53;;;;;;;10.50;3.40;;;;;;;17.94;nan;101729.03;10348577;28;20129;-78
2023/09/26 08:38:55;;;;;;;7.07;3.22;;;;;;;18.29;nan;101690.41;10375082;28;20074;-78
2023/09/26 08:43:55;;;;;;;7.03;3.40;;;;;;;18.43;nan;101705.81;10357687;28;20046;-78
2023/09/26 08:48:56;;;;;;;11.68;4.07;;;;;;;18.38;nan;101723.31;10345192;28;20069;-79
2023/09/26 08:53:56;;;;;;;9.70;3.75;;;;;;;18.60;nan;101732.78;10348649;28;20038;-78
2023/09/26 08:58:57;;;;;;;9.88;3.90;;;;;;;18.53;nan;101739.66;10333730;28;20381;-79
2023/09/26 09:03:58;;;;;;;7.05;4.18;;;;;;;18.64;nan;101713.44;10359434;28;20037;-79
2023/09/26 09:09:09;;;;;;;4.93;2.93;;;;;;;18.90;nan;101714.19;10369401;28;20038;-79
2023/09/26 09:14:09;;;;;;;6.83;3.17;;;;;;;19.35;nan;101748.97;10341578;28;20371;-79
2023/09/26 09:19:10;;;;;;;7.03;3.50;;;;;;;19.44;nan;101764.22;10367935;28;20038;-80
2023/09/26 09:24:11;;;;;;;53.03;9.57;;;;;;;19.87;nan;101754.63;10354211;28;20129;-79
2023/09/26 09:29:19;;;;;;;140.00;135.20;;;;;;;20.31;nan;101745.91;10355922;28;20048;-79
2023/09/26 09:34:21;;;;;;;147.52;50.92;;;;;;;21.31;nan;101772.66;10350387;28;20505;-78
2023/09/26 09:39:22;;;;;;;7.38;3.80;;;;;;;22.27;nan;101779.50;10381326;28;20040;-77
2023/09/26 09:44:23;;;;;;;278.58;160.77;;;;;;;24.24;nan;101793.94;10345466;28;20034;-77
2023/09/26 09:49:23;;;;;;;5.07;2.77;;;;;;;25.35;nan;101813.94;10361343;28;20393;-77
2023/09/26 09:54:24;;;;;;;4.37;2.40;;;;;;;27.97;nan;101810.22;10341945;28;20070;-77
2023/09/26 09:59:24;;;;;;;2.27;2.07;;;;;;;29.11;nan;101811.53;10351829;28;20048;-77
2023/09/26 10:04:25;;;;;;;5.67;3.57;;;;;;;29.71;nan;101813.28;10346788;28;20073;-79
2023/09/26 10:09:26;;;;;;;6.67;3.97;;;;;;;30.60;nan;101793.63;10361410;28;20061;-78
2023/09/26 10:14:29;;;;;;;6.90;2.97;;;;;;;30.52;nan;101778.44;10363296;28;20069;-79
2023/09/26 10:19:29;;;;;;;12.60;3.97;;;;;;;30.77;nan;101782.41;10362369;28;20064;-80
2023/09/26 10:24:30;;;;;;;3.28;2.50;;;;;;;31.18;nan;101784.22;10380098;28;20076;-79
2023/09/26 10:29:31;;;;;;;4.10;1.77;;;;;;;32.28;nan;101781.31;10365364;28;20133;-80
2023/09/26 10:34:35;;;;;;;6.97;2.08;;;;;;;32.21;nan;101783.28;10363483;28;20129;-79
2023/09/26 10:39:39;;;;;;;7.28;2.38;;;;;;;32.05;nan;101769.34;10329170;28;20046;-79
2023/09/26 10:44:40;;;;;;;11.77;4.07;;;;;;;31.61;nan;101771.41;10345717;28;20045;-79
2023/09/26 10:49:41;;;;;;;;;;;;;;;32.64;nan;101769.44;10375236;28;20042;-79
2023/09/26 10:54:42;;;;;;;3.77;2.20;;;;;;;31.08;nan;101761.00;10339442;28;19976;-79
2023/09/26 10:59:42;;;;;;;4.85;2.85;;;;;;;30.69;nan;101749.28;10338617;28;20049;-79
2023/09/26 11:04:43;;;;;;;5.97;2.40;;;;;;;31.40;nan;101753.91;10360207;28;20065;-78
2023/09/26 11:09:44;;;;;;;6.93;2.77;;;;;;;31.74;nan;101761.16;10360288;28;20041;-79
2023/09/26 11:14:45;;;;;;;8.68;3.58;;;;;;;31.51;nan;101751.81;10368450;28;20640;-77
2023/09/26 11:19:45;;;;;;;4.72;2.53;;;;;;;31.54;nan;101749.03;10345082;28;20037;-77
2023/09/26 11:24:46;;;;;;;4.30;2.17;;;;;;;31.38;nan;101743.16;10363965;28;20482;-80
2023/09/26 11:29:46;;;;;;;5.10;2.17;;;;;;;31.00;nan;101743.16;10360054;28;20312;-77
2023/09/26 11:34:47;;;;;;;3.23;1.77;;;;;;;29.85;nan;101752.78;10359366;28;20145;-78
2023/09/26 11:39:51;;;;;;;4.90;2.00;;;;;;;27.99;nan;101761.75;10347306;28;20479;-76
2023/09/26 11:44:55;;;;;;;3.45;1.63;;;;;;;28.53;nan;101754.84;10347903;28;20043;-77
2023/09/26 11:49:56;;;;;;;8.48;2.60;;;;;;;26.38;nan;101763.81;10344540;28;20124;-77
2023/09/26 11:54:56;;;;;;;4.97;2.20;;;;;;;24.64;nan;101764.66;10356772;28;20049;-78
2023/09/26 11:59:56;;;;;;;5.80;1.93;;;;;;;24.03;nan;101749.25;10352019;28;20042;-78
2023/09/26 12:04:57;;;;;;;3.60;1.53;;;;;;;23.10;nan;101748.50;10348859;28;20072;-82
2023/09/26 12:09:58;;;;;;;5.53;2.00;;;;;;;23.07;nan;101736.00;10348077;28;20048;-80
2023/09/26 12:15:18;;;;;;;5.33;1.73;;;;;;;23.33;nan;101730.03;10354701;28;20156;-80
2023/09/26 12:20:24;;;;;;;4.93;2.25;;;;;;;24.30;nan;101731.56;10357037;28;20045;-82
2023/09/26 12:25:27;;;;;;;3.97;1.80;;;;;;;24.30;nan;101724.41;10338920;28;20037;-83
2023/09/26 12:30:28;;;;;;;3.90;2.28;;;;;;;25.90;nan;101721.00;10343059;28;20130;-82
2023/09/26 12:35:28;;;;;;;5.97;2.67;;;;;;;27.72;nan;101710.06;10354069;28;20140;-77
2023/09/26 12:40:29;;;;;;;4.53;2.10;;;;;;;27.83;nan;101713.50;10359087;28;20045;-80
2023/09/26 12:45:29;;;;;;;4.57;2.70;;;;;;;27.74;nan;101713.63;10358164;28;20073;-78
2023/09/26 12:50:30;;;;;;;3.22;1.95;;;;;;;27.36;nan;101722.91;10357694;28;20156;-80
2023/09/26 12:55:30;;;;;;;4.33;2.00;;;;;;;27.37;nan;101709.47;10390012;28;20038;-80
2023/09/26 13:00:33;;;;;;;5.80;2.13;;;;;;;28.48;nan;101709.16;10360151;28;20497;-80
2023/09/26 13:05:34;;;;;;;5.13;2.15;;;;;;;28.07;nan;101695.31;10348651;28;20128;-80
2023/09/26 13:10:35;;;;;;;4.40;2.93;;;;;;;27.59;nan;101705.72;10382448;28;20046;-80
2023/09/26 13:15:35;;;;;;;4.93;2.60;;;;;;;26.20;nan;101717.38;10350147;28;20070;-80
2023/09/26 13:20:36;;;;;;;4.50;2.43;;;;;;;24.87;nan;101714.81;10350336;28;20316;-80
2023/09/26 13:25:36;;;;;;;5.90;2.77;;;;;;;24.12;nan;101702.94;10354370;28;20547;-81
2023/09/26 13:30:37;;;;;;;4.47;2.60;;;;;;;24.83;nan;101705.88;10355975;28;20136;-81
2023/09/26 13:35:37;;;;;;;6.63;2.80;;;;;;;25.44;nan;101706.78;10349843;28;20475;-80
2023/09/26 13:40:40;;;;;;;4.63;2.43;;;;;;;25.24;nan;101696.09;10358135;28;20095;-77
2023/09/26 13:45:40;;;;;;;9.18;3.83;;;;;;;25.25;nan;101699.63;10348148;28;20149;-77
2023/09/26 13:50:41;;;;;;;7.10;2.83;;;;;;;25.19;nan;101680.00;10350663;28;20072;-79
2023/09/26 13:55:41;;;;;;;5.07;2.63;;;;;;;25.52;nan;101677.34;10371479;28;20068;-79
2023/09/26 14:00:42;;;;;;;5.63;3.20;;;;;;;26.99;nan;101691.91;10356044;28;20173;-79
2023/09/26 14:05:42;;;;;;;4.83;2.63;;;;;;;27.06;nan;101687.34;10355462;28;20136;-78
2023/09/26 14:10:43;;;;;;;8.27;3.00;;;;;;;26.19;nan;101685.19;10330274;28;20115;-79
2023/09/26 14:15:44;;;;;;;4.60;2.50;;;;;;;24.80;nan;101695.16;10318523;28;20088;-79
2023/09/26 14:20:51;;;;;;;7.00;2.97;;;;;;;23.68;nan;101683.97;10331066;28;20128;-79
2023/09/26 14:25:52;;;;;;;5.05;2.20;;;;;;;23.01;nan;101650.53;10335396;28;20045;-78
2023/09/26 14:30:53;;;;;;;5.53;3.05;;;;;;;22.59;nan;101663.47;10362538;28;20162;-77
2023/09/26 14:35:54;;;;;;;4.65;2.50;;;;;;;22.46;nan;101614.44;10362049;28;20480;-78
2023/09/26 14:40:54;;;;;;;6.13;2.57;;;;;;;22.29;nan;101590.25;10362213;28;20040;-78
2023/09/26 14:45:58;;;;;;;5.23;2.80;;;;;;;22.19;nan;101610.56;10363741;28;20560;-78
2023/09/26 14:50:58;;;;;;;5.45;2.30;;;;;;;22.08;nan;101612.22;10359351;28;20571;-78
2023/09/26 14:55:59;;;;;;;3.47;1.93;;;;;;;21.82;nan;101594.13;10363039;28;20121;-78
2023/09/26 15:00:59;;;;;;;3.93;2.50;;;;;;;21.82;nan;101605.69;10376822;28;20053;-78
2023/09/26 15:06:00;;;;;;;4.27;1.97;;;;;;;22.00;nan;101614.81;10361941;28;20096;-78
2023/09/26 15:11:00;;;;;;;7.37;2.83;;;;;;;21.95;nan;101590.75;10360950;28;20116;-78
2023/09/26 15:16:05;;;;;;;7.90;2.80;;;;;;;21.75;nan;101581.63;10359899;28;20184;-78
2023/09/26 15:21:06;;;;;;;5.78;2.67;;;;;;;21.21;nan;101585.31;10375937;28;20133;-79
2023/09/26 15:26:07;;;;;;;6.73;2.97;;;;;;;20.91;nan;101591.94;10339406;28;20037;-77
2023/09/26 15:31:10;;;;;;;7.07;3.50;;;;;;;20.69;nan;101578.25;10354975;28;20034;-77
2023/09/26 15:36:14;;;;;;;6.20;2.78;;;;;;;20.32;nan;101574.94;10353401;28;20051;-77
2023/09/26 15:41:16;;;;;;;7.07;3.67;;;;;;;20.06;nan;101562.03;10354729;28;20038;-78
2023/09/26 15:46:23;;;;;;;8.50;3.38;;;;;;;19.69;nan;101548.00;10362620;28;20501;-77
2023/09/26 15:51:24;;;;;;;7.60;2.83;;;;;;;19.40;nan;101532.34;10340170;28;20100;-77
2023/09/26 15:56:24;;;;;;;5.15;2.97;;;;;;;19.15;nan;101514.97;10360175;28;20456;-77
2023/09/26 16:01:25;;;;;;;11.93;4.78;;;;;;;18.84;nan;101520.44;10352144;28;20133;-77
2023/09/26 16:06:25;;;;;;;3.58;2.42;;;;;;;18.59;nan;101506.56;10351870;28;20042;-76
2023/09/26 16:11:26;;;;;;;7.80;2.90;;;;;;;18.41;nan;101507.00;10356450;28;20371;-76
2023/09/26 16:16:26;;;;;;;4.15;3.15;;;;;;;18.24;nan;101506.56;10358911;28;20111;-77
2023/09/26 16:21:27;;;;;;;12.30;4.38;;;;;;;18.10;nan;101508.84;10358013;28;20423;-77
2023/09/26 16:26:28;;;;;;;5.50;3.88;;;;;;;17.96;nan;101504.88;10374357;28;20041;-77
2023/09/26 16:31:29;;;;;;;5.23;3.17;;;;;;;17.86;nan;101524.94;10352047;28;20121;-77
2023/09/26 16:36:29;;;;;;;6.07;3.95;;;;;;;17.71;nan;101525.38;10357822;28;20064;-77
2023/09/26 16:41:30;;;;;;;5.90;4.25;;;;;;;17.49;nan;101526.50;10359129;28;20073;-77
2023/09/26 16:46:30;;;;;;;10.75;4.07;;;;;;;17.25;nan;101517.00;10357191;28;20121;-77
2023/09/26 16:51:31;;;;;;;9.70;4.90;;;;;;;17.00;nan;101514.47;10372131;28;20048;-77
2023/09/26 16:56:31;;;;;;;9.02;3.42;;;;;;;16.84;nan;101513.06;10352496;28;20141;-77
2023/09/26 17:01:32;;;;;;;5.95;4.18;;;;;;;16.71;nan;101524.09;10357008;28;20042;-77
2023/09/26 17:06:34;;;;;;;8.15;4.65;;;;;;;16.58;nan;101534.25;10356995;28;20085;-77
2023/09/26 17:11:34;;;;;;;8.48;4.53;;;;;;;16.42;nan;101539.84;10369732;28;20152;-78
2023/09/26 17:16:35;;;;;;;6.35;3.58;;;;;;;16.20;nan;101549.66;10359111;28;20488;-76
2023/09/26 17:21:35;;;;;;;6.00;3.60;;;;;;;16.02;nan;101549.91;10351291;28;20066;-76
2023/09/26 17:26:36;;;;;;;4.93;3.58;;;;;;;15.81;nan;101561.44;10354389;28;21844;-76
2023/09/26 17:31:36;;;;;;;11.63;4.40;;;;;;;15.65;nan;101561.69;10359013;28;20038;-76
2023/09/26 17:36:37;;;;;;;9.00;4.25;;;;;;;15.48;nan;101568.97;10372168;28;20061;-76
2023/09/26 17:41:40;;;;;;;6.90;4.40;;;;;;;15.30;nan;101562.16;10359569;28;20052;-77
2023/09/26 17:46:42;;;;;;;7.80;4.43;;;;;;;15.24;nan;101583.88;10357304;28;20042;-77
2023/09/26 17:51:42;;;;;;;10.63;5.10;;;;;;;15.08;nan;101578.84;10356152;28;20107;-78
2023/09/26 17:56:43;;;;;;;11.40;5.15;;;;;;;14.97;nan;101581.03;10373599;28;20046;-77
2023/09/26 18:01:43;;;;;;;11.73;5.72;;;;;;;14.77;nan;101578.50;10364141;28;20046;-77
2023/09/26 18:06:44;;;;;;;8.05;4.72;;;;;;;14.69;nan;101585.13;10360990;28;20119;-78
2023/09/26 18:11:45;;;;;;;9.50;5.25;;;;;;;14.52;nan;101592.31;10323856;28;20487;-79
2023/09/26 18:16:45;;;;;;;8.05;5.47;;;;;;;14.37;nan;101611.00;10341348;28;20155;-77
2023/09/26 18:21:46;;;;;;;9.25;5.80;;;;;;;14.36;nan;101611.81;10357987;28;20095;-77
2023/09/26 18:26:46;;;;;;;7.45;5.72;;;;;;;14.30;nan;101614.19;10362486;28;20104;-77
2023/09/26 18:31:47;;;;;;;9.57;6.65;;;;;;;14.18;nan;101630.31;10375240;28;20559;-77
2023/09/26 18:36:47;;;;;;;11.80;6.80;;;;;;;14.12;nan;101630.03;10361461;28;20830;-76
2023/09/26 18:41:48;;;;;;;13.75;7.97;;;;;;;14.08;nan;101644.81;10376350;28;20044;-76
2023/09/26 18:46:48;;;;;;;8.35;7.10;;;;;;;14.04;nan;101645.50;10357299;28;20099;-77
2023/09/26 18:51:49;;;;;;;9.48;7.00;;;;;;;13.92;nan;101664.22;10360580;28;20509;-77
2023/09/26 18:56:50;;;;;;;10.65;7.32;;;;;;;13.83;nan;101663.81;10377439;28;20052;-77
2023/09/26 19:01:51;;;;;;;12.93;8.40;;;;;;;13.78;nan;101669.75;10354510;28;20050;-78
2023/09/26 19:06:51;;;;;;;10.57;7.80;;;;;;;13.78;nan;101661.84;10358976;28;20042;-77
2023/09/26 19:11:54;;;;;;;11.63;7.22;;;;;;;13.68;nan;101662.25;10360584;28;20072;-77
2023/09/26 19:16:55;;;;;;;14.73;8.38;;;;;;;13.54;nan;101665.94;10341417;28;20479;-77
2023/09/26 19:21:56;;;;;;;15.15;7.78;;;;;;;13.48;nan;101664.81;10335164;28;20065;-76
2023/09/26 19:26:56;;;;;;;8.32;6.78;;;;;;;13.36;nan;101675.63;10338558;28;20499;-77
2023/09/26 19:31:58;;;;;;;14.10;7.45;;;;;;;13.34;nan;101682.53;10327169;28;20129;-76
2023/09/26 19:36:59;;;;;;;15.35;7.60;;;;;;;13.39;nan;101685.38;10336653;28;20089;-77
2023/09/26 19:41:59;;;;;;;10.48;6.75;;;;;;;13.29;nan;101689.28;10337058;28;20095;-76
2023/09/26 19:47:00;;;;;;;13.73;9.25;;;;;;;13.18;nan;101691.38;10359820;28;20038;-76
2023/09/26 19:52:00;;;;;;;11.90;7.88;;;;;;;13.01;nan;101687.00;10357193;28;20073;-75
2023/09/26 19:57:01;;;;;;;12.40;7.95;;;;;;;12.83;nan;101685.22;10351114;28;20176;-76
2023/09/26 20:02:01;;;;;;;13.90;8.73;;;;;;;12.71;nan;101674.09;10360436;28;20135;-76
2023/09/26 20:07:03;;;;;;;14.13;8.13;;;;;;;12.66;nan;101676.50;10377096;28;20128;-76
2023/09/26 20:12:03;;;;;;;11.10;8.43;;;;;;;12.66;nan;101659.81;10358992;28;20053;-76
2023/09/26 20:17:04;;;;;;;10.98;8.23;;;;;;;12.65;nan;101668.50;10374606;28;20382;-77
2023/09/26 20:22:05;;;;;;;12.50;8.52;;;;;;;12.46;nan;101664.94;10359518;28;20120;-76
2023/09/26 20:27:06;;;;;;;10.10;8.55;;;;;;;12.32;nan;101667.72;10357806;28;20553;-77
2023/09/26 20:32:07;;;;;;;13.93;9.17;;;;;;;12.34;nan;101658.22;10349711;28;20041;-76
2023/09/26 20:37:07;;;;;;;13.43;8.20;;;;;;;12.28;nan;101659.63;10357052;28;20293;-76
2023/09/26 20:42:08;;;;;;;13.68;9.13;;;;;;;12.31;nan;101663.28;10372707;28;20052;-77
2023/09/26 20:47:09;;;;;;;13.10;9.30;;;;;;;12.34;nan;101659.94;10354260;28;20042;-77
2023/09/26 20:52:09;;;;;;;18.35;11.40;;;;;;;12.32;nan;101665.09;10358915;28;20092;-77
2023/09/26 20:57:10;;;;;;;15.10;11.10;;;;;;;12.33;nan;101645.91;10357105;28;20129;-77
2023/09/26 21:02:10;;;;;;;15.30;10.93;;;;;;;12.16;nan;101645.03;10371267;28;20100;-77
2023/09/26 21:07:11;;;;;;;14.55;10.73;;;;;;;12.08;nan;101646.31;10354216;28;20050;-77
2023/09/26 21:12:12;;;;;;;12.73;8.70;;;;;;;11.93;nan;101642.84;10356626;28;20405;-77
2023/09/26 21:17:13;;;;;;;12.57;10.00;;;;;;;11.73;nan;101669.75;10374046;28;20053;-77
2023/09/26 21:22:13;;;;;;;11.82;9.43;;;;;;;11.65;nan;101693.75;10373109;28;20452;-77
2023/09/26 21:27:14;;;;;;;13.55;9.73;;;;;;;11.61;nan;101718.88;10358086;28;20091;-77
2023/09/26 21:32:14;;;;;;;14.05;9.63;;;;;;;11.57;nan;101693.31;10356403;28;20133;-77
2023/09/26 21:37:15;;;;;;;17.42;10.80;;;;;;;11.66;nan;101692.94;10366565;28;20049;-78
2023/09/26 21:42:15;;;;;;;11.65;10.35;;;;;;;11.62;nan;101699.72;10365662;28;20056;-77
2023/09/26 21:47:16;;;;;;;14.32;10.32;;;;;;;11.55;nan;101700.19;10367149;28;20046;-78
2023/09/26 21:52:16;;;;;;;17.63;12.05;;;;;;;11.58;nan;101705.59;10364063;28;20125;-77
2023/09/26 21:57:17;;;;;;;13.32;11.85;;;;;;;11.50;nan;101713.03;10360583;28;20463;-77
2023/09/26 22:02:17;;;;;;;14.48;12.18;;;;;;;11.45;nan;101718.00;10364428;28;20048;-77
2023/09/26 22:07:18;;;;;;;16.50;13.00;;;;;;;11.47;nan;101705.00;10365233;28;20456;-78
2023/09/26 22:12:19;;;;;;;18.60;10.90;;;;;;;11.39;nan;101707.16;10363708;28;20482;-78
2023/09/26 22:17:20;;;;;;;13.32;10.13;;;;;;;11.38;nan;101705.38;10363573;28;20038;-77
2023/09/26 22:22:20;;;;;;;16.17;12.43;;;;;;;11.49;nan;101710.31;10349429;28;20120;-77
2023/09/26 22:27:21;;;;;;;13.88;11.68;;;;;;;11.44;nan;101705.72;10363069;28;20061;-77
2023/09/26 22:32:22;;;;;;;21.05;13.98;;;;;;;11.42;nan;101694.25;10364133;28;20072;-77
2023/09/26 22:37:22;;;;;;;14.52;12.88;;;;;;;11.40;nan;101684.50;10364107;28;20746;-78
2023/09/26 22:42:23;;;;;;;17.35;13.48;;;;;;;11.34;nan;101700.75;10363665;28;20137;-77
2023/09/26 22:47:24;;;;;;;20.77;17.20;;;;;;;11.23;nan;101691.38;10364110;28;20091;-77
2023/09/26 22:52:25;;;;;;;19.67;13.27;;;;;;;11.14;nan;101692.63;10357712;28;20076;-78
2023/09/26 22:57:26;;;;;;;15.40;12.80;;;;;;;11.11;nan;101694.19;10358300;28;20087;-77
2023/09/26 23:02:27;;;;;;;21.17;14.23;;;;;;;11.02;nan;101679.75;10324727;28;20047;-77
2023/09/26 23:07:30;;;;;;;19.30;15.07;;;;;;;11.06;nan;101686.03;10305004;28;20479;-77
2023/09/26 23:12:30;;;;;;;27.20;17.77;;;;;;;11.06;nan;101677.31;10322364;28;20065;-78
2023/09/26 23:17:31;;;;;;;29.95;18.48;;;;;;;11.05;nan;101665.91;10304343;28;20038;-77
2023/09/26 23:22:31;;;;;;;24.92;17.88;;;;;;;11.04;nan;101648.38;10322144;28;20035;-78
2023/09/26 23:27:32;;;;;;;24.90;15.98;;;;;;;11.02;nan;101658.78;10334118;28;20853;-78